sensor_id;sensor_type;location;lat;lon;timestamp;pressure;altitude;pressure_sealevel;temperature;humidity
55187;BME280;55457;52.002;5.464;2023-04-09T00:01:48;102413.59;;;21.44;41.15
55187;BME280;55457;52.002;5.464;2023-04-09T00:04:13;102413.59;;;21.44;40.89
55187;BME280;55457;52.002;5.464;2023-04-09T00:06:38;102409.00;;;21.45;41.17
55187;BME280;55457;52.002;5.464;2023-04-09T00:09:03;102416.31;;;21.44;41.21
55187;BME280;55457;52.002;5.464;2023-04-09T00:11:29;102406.50;;;21.43;41.12
55187;BME280;55457;52.002;5.464;2023-04-09T00:13:54;102409.81;;;21.45;41.03
55187;BME280;55457;52.002;5.464;2023-04-09T00:16:19;102409.81;;;21.45;41.23
55187;BME280;55457;52.002;5.464;2023-04-09T00:18:44;102410.03;;;21.44;41.17
55187;BME280;55457;52.002;5.464;2023-04-09T00:21:10;102401.09;;;21.43;41.22
55187;BME280;55457;52.002;5.464;2023-04-09T00:23:35;102408.16;;;21.44;41.08
55187;BME280;55457;52.002;5.464;2023-04-09T00:26:00;102409.22;;;21.43;41.19
55187;BME280;55457;52.002;5.464;2023-04-09T00:28:25;102404.84;;;21.42;41.13
55187;BME280;55457;52.002;5.464;2023-04-09T00:30:51;102403.78;;;21.43;41.32
55187;BME280;55457;52.002;5.464;2023-04-09T00:33:16;102404.84;;;21.42;41.32
55187;BME280;55457;52.002;5.464;2023-04-09T00:35:41;102404.84;;;21.42;41.42
55187;BME280;55457;52.002;5.464;2023-04-09T00:38:06;102403.19;;;21.41;41.31
55187;BME280;55457;52.002;5.464;2023-04-09T00:40:32;102394.00;;;21.42;41.30
55187;BME280;55457;52.002;5.464;2023-04-09T00:42:57;102391.28;;;21.42;41.22
55187;BME280;55457;52.002;5.464;2023-04-09T00:45:22;102396.72;;;21.42;41.44
55187;BME280;55457;52.002;5.464;2023-04-09T00:47:47;102386.91;;;21.41;41.34
55187;BME280;55457;52.002;5.464;2023-04-09T00:50:13;102386.91;;;21.41;41.30
55187;BME280;55457;52.002;5.464;2023-04-09T00:52:38;102386.91;;;21.41;41.38
55187;BME280;55457;52.002;5.464;2023-04-09T00:55:04;102380.66;;;21.41;41.19
55187;BME280;55457;52.002;5.464;2023-04-09T00:57:30;102382.31;;;21.42;41.39
55187;BME280;55457;52.002;5.464;2023-04-09T00:59:55;102374.38;;;21.40;41.33
55187;BME280;55457;52.002;5.464;2023-04-09T01:02:20;102379.78;;;21.40;41.39
55187;BME280;55457;52.002;5.464;2023-04-09T01:04:46;102382.50;;;21.40;41.32
55187;BME280;55457;52.002;5.464;2023-04-09T01:12:08;102375.44;;;21.39;41.44
55187;BME280;55457;52.002;5.464;2023-04-09T01:17:23;102367.28;;;21.39;41.49
55187;BME280;55457;52.002;5.464;2023-04-09T01:19:56;102371.88;;;21.39;41.62
55187;BME280;55457;52.002;5.464;2023-04-09T01:27:43;102370.81;;;21.40;41.73
55187;BME280;55457;52.002;5.464;2023-04-09T01:30:11;102361.88;;;21.39;41.44
55187;BME280;55457;52.002;5.464;2023-04-09T01:32:39;102360.22;;;21.38;41.45
55187;BME280;55457;52.002;5.464;2023-04-09T01:35:05;102359.16;;;21.39;41.38
55187;BME280;55457;52.002;5.464;2023-04-09T01:37:31;102367.28;;;21.39;41.59
55187;BME280;55457;52.002;5.464;2023-04-09T01:39:57;102354.78;;;21.38;41.63
55187;BME280;55457;52.002;5.464;2023-04-09T01:42:23;102355.59;;;21.39;41.46
55187;BME280;55457;52.002;5.464;2023-04-09T01:44:49;102360.22;;;21.38;41.65
55187;BME280;55457;52.002;5.464;2023-04-09T01:47:15;102356.44;;;21.39;41.68
55187;BME280;55457;52.002;5.464;2023-04-09T01:49:40;102363.97;;;21.37;41.53
55187;BME280;55457;52.002;5.464;2023-04-09T01:52:05;102362.09;;;21.38;41.62
55187;BME280;55457;52.002;5.464;2023-04-09T01:54:31;102358.53;;;21.37;41.41
55187;BME280;55457;52.002;5.464;2023-04-09T01:56:57;102354.78;;;21.38;41.59
55187;BME280;55457;52.002;5.464;2023-04-09T01:59:22;102354.78;;;21.38;41.41
55187;BME280;55457;52.002;5.464;2023-04-09T02:01:52;102353.94;;;21.38;41.53
55187;BME280;55457;52.002;5.464;2023-04-09T02:04:20;102358.53;;;21.37;41.68
55187;BME280;55457;52.002;5.464;2023-04-09T02:06:52;102355.84;;;21.37;41.59
55187;BME280;55457;52.002;5.464;2023-04-09T02:09:20;102353.13;;;21.37;41.48
55187;BME280;55457;52.002;5.464;2023-04-09T02:11:47;102353.13;;;21.37;41.49
55187;BME280;55457;52.002;5.464;2023-04-09T02:14:14;102343.31;;;21.36;41.56
55187;BME280;55457;52.002;5.464;2023-04-09T02:16:40;102350.63;;;21.35;41.66
55187;BME280;55457;52.002;5.464;2023-04-09T02:19:06;102347.06;;;21.35;41.42
55187;BME280;55457;52.002;5.464;2023-04-09T02:21:31;102340.63;;;21.36;41.53
55187;BME280;55457;52.002;5.464;2023-04-09T02:23:56;102337.91;;;21.36;41.47
55187;BME280;55457;52.002;5.464;2023-04-09T02:26:22;102344.34;;;21.35;41.61
55187;BME280;55457;52.002;5.464;2023-04-09T02:28:48;102336.03;;;21.36;41.68
55187;BME280;55457;52.002;5.464;2023-04-09T02:31:13;102339.78;;;21.35;41.83
55187;BME280;55457;52.002;5.464;2023-04-09T02:33:38;102333.50;;;21.35;41.89
55187;BME280;55457;52.002;5.464;2023-04-09T02:36:04;102338.91;;;21.35;41.56
55187;BME280;55457;52.002;5.464;2023-04-09T02:38:29;102330.78;;;21.35;41.83
55187;BME280;55457;52.002;5.464;2023-04-09T02:40:55;102342.50;;;21.35;41.67
55187;BME280;55457;52.002;5.464;2023-04-09T02:43:20;102336.22;;;21.35;41.74
55187;BME280;55457;52.002;5.464;2023-04-09T02:45:45;102332.66;;;21.34;41.59
55187;BME280;55457;52.002;5.464;2023-04-09T02:48:10;102328.06;;;21.35;41.71
55187;BME280;55457;52.002;5.464;2023-04-09T02:50:35;102331.84;;;21.34;41.71
55187;BME280;55457;52.002;5.464;2023-04-09T02:53:01;102326.41;;;21.34;41.70
55187;BME280;55457;52.002;5.464;2023-04-09T02:55:26;102329.13;;;21.34;41.72
55187;BME280;55457;52.002;5.464;2023-04-09T02:57:51;102323.69;;;21.34;41.59
55187;BME280;55457;52.002;5.464;2023-04-09T03:00:17;102327.47;;;21.33;41.64
55187;BME280;55457;52.002;5.464;2023-04-09T03:02:42;102332.91;;;21.33;41.91
55187;BME280;55457;52.002;5.464;2023-04-09T03:05:07;102327.47;;;21.33;41.96
55187;BME280;55457;52.002;5.464;2023-04-09T03:07:32;102328.53;;;21.32;42.00
55187;BME280;55457;52.002;5.464;2023-04-09T03:09:58;102328.53;;;21.32;41.80
55187;BME280;55457;52.002;5.464;2023-04-09T03:12:23;102318.72;;;21.31;41.99
55187;BME280;55457;52.002;5.464;2023-04-09T03:14:48;102326.88;;;21.31;41.67
55187;BME280;55457;52.002;5.464;2023-04-09T03:17:13;102321.44;;;21.31;41.67
55187;BME280;55457;52.002;5.464;2023-04-09T03:19:38;102318.72;;;21.31;41.83
55187;BME280;55457;52.002;5.464;2023-04-09T03:22:04;102321.44;;;21.31;41.62
55187;BME280;55457;52.002;5.464;2023-04-09T03:24:30;102312.47;;;21.30;41.76
55187;BME280;55457;52.002;5.464;2023-04-09T03:26:55;102316.00;;;21.31;41.53
55187;BME280;55457;52.002;5.464;2023-04-09T03:29:21;102315.19;;;21.30;41.87
55187;BME280;55457;52.002;5.464;2023-04-09T03:31:46;102309.75;;;21.30;41.85
55187;BME280;55457;52.002;5.464;2023-04-09T03:34:11;102298.09;;;21.30;41.65
55187;BME280;55457;52.002;5.464;2023-04-09T03:36:37;102298.91;;;21.30;41.76
55187;BME280;55457;52.002;5.464;2023-04-09T03:39:02;102299.75;;;21.31;41.73
55187;BME280;55457;52.002;5.464;2023-04-09T03:41:27;102307.06;;;21.30;41.94
55187;BME280;55457;52.002;5.464;2023-04-09T03:43:52;102289.94;;;21.30;42.01
55187;BME280;55457;52.002;5.464;2023-04-09T03:46:17;102294.47;;;21.29;41.85
55187;BME280;55457;52.002;5.464;2023-04-09T03:48:43;102298.09;;;21.30;42.07
55187;BME280;55457;52.002;5.464;2023-04-09T03:51:12;102298.09;;;21.30;41.74
55187;BME280;55457;52.002;5.464;2023-04-09T03:53:37;102296.38;;;21.29;41.99
55187;BME280;55457;52.002;5.464;2023-04-09T03:56:02;102297.19;;;21.29;41.87
55187;BME280;55457;52.002;5.464;2023-04-09T03:58:28;102293.66;;;21.29;41.85
55187;BME280;55457;52.002;5.464;2023-04-09T04:00:53;102296.38;;;21.29;41.92
55187;BME280;55457;52.002;5.464;2023-04-09T04:03:18;102295.38;;;21.30;41.71
55187;BME280;55457;52.002;5.464;2023-04-09T04:05:43;102299.06;;;21.29;41.91
55187;BME280;55457;52.002;5.464;2023-04-09T04:08:09;102290.94;;;21.29;41.93
55187;BME280;55457;52.002;5.464;2023-04-09T04:10:34;102290.13;;;21.28;41.85
55187;BME280;55457;52.002;5.464;2023-04-09T04:12:59;102290.94;;;21.29;41.80
55187;BME280;55457;52.002;5.464;2023-04-09T04:15:26;102290.13;;;21.28;41.94
55187;BME280;55457;52.002;5.464;2023-04-09T04:17:51;102289.28;;;21.28;41.87
55187;BME280;55457;52.002;5.464;2023-04-09T04:20:16;102293.88;;;21.27;41.90
55187;BME280;55457;52.002;5.464;2023-04-09T04:22:41;102287.63;;;21.27;41.80
55187;BME280;55457;52.002;5.464;2023-04-09T04:25:06;102290.34;;;21.27;41.95
55187;BME280;55457;52.002;5.464;2023-04-09T04:27:32;102282.19;;;21.27;41.99
55187;BME280;55457;52.002;5.464;2023-04-09T04:29:57;102282.19;;;21.27;41.64
55187;BME280;55457;52.002;5.464;2023-04-09T04:32:24;102284.09;;;21.26;41.75
55187;BME280;55457;52.002;5.464;2023-04-09T04:34:49;102282.19;;;21.27;42.07
55187;BME280;55457;52.002;5.464;2023-04-09T04:37:14;102286.78;;;21.26;41.96
55187;BME280;55457;52.002;5.464;2023-04-09T04:39:39;102279.50;;;21.27;41.94
55187;BME280;55457;52.002;5.464;2023-04-09T04:42:05;102273.47;;;21.25;41.82
55187;BME280;55457;52.002;5.464;2023-04-09T04:44:30;102284.91;;;21.27;41.86
55187;BME280;55457;52.002;5.464;2023-04-09T04:46:55;102283.25;;;21.26;41.79
55187;BME280;55457;52.002;5.464;2023-04-09T04:49:20;102281.59;;;21.25;41.94
55187;BME280;55457;52.002;5.464;2023-04-09T04:51:45;102280.53;;;21.26;41.93
55187;BME280;55457;52.002;5.464;2023-04-09T04:54:11;102285.31;;;21.24;42.00
55187;BME280;55457;52.002;5.464;2023-04-09T04:56:36;102284.31;;;21.25;41.77
55187;BME280;55457;52.002;5.464;2023-04-09T04:59:01;102278.88;;;21.25;41.96
55187;BME280;55457;52.002;5.464;2023-04-09T05:01:26;102283.25;;;21.26;41.74
55187;BME280;55457;52.002;5.464;2023-04-09T05:03:51;102277.19;;;21.24;42.00
55187;BME280;55457;52.002;5.464;2023-04-09T05:06:17;102279.91;;;21.24;41.87
55187;BME280;55457;52.002;5.464;2023-04-09T05:08:42;102275.53;;;21.23;41.82
55187;BME280;55457;52.002;5.464;2023-04-09T05:11:10;102270.94;;;21.23;41.81
55187;BME280;55457;52.002;5.464;2023-04-09T05:13:35;102273.66;;;21.23;42.04
55187;BME280;55457;52.002;5.464;2023-04-09T05:16:00;102277.19;;;21.24;41.88
55187;BME280;55457;52.002;5.464;2023-04-09T05:18:26;102285.31;;;21.24;41.95
55187;BME280;55457;52.002;5.464;2023-04-09T05:20:51;102285.31;;;21.24;41.94
55187;BME280;55457;52.002;5.464;2023-04-09T05:23:16;102285.56;;;21.22;41.81
55187;BME280;55457;52.002;5.464;2023-04-09T05:25:41;102288.03;;;21.24;41.98
55187;BME280;55457;52.002;5.464;2023-04-09T05:28:07;102286.38;;;21.23;41.78
55187;BME280;55457;52.002;5.464;2023-04-09T05:30:32;102293.47;;;21.24;42.01
55187;BME280;55457;52.002;5.464;2023-04-09T05:32:57;102297.22;;;21.23;41.96
55187;BME280;55457;52.002;5.464;2023-04-09T05:35:22;102298.06;;;21.23;41.92
55187;BME280;55457;52.002;5.464;2023-04-09T05:37:47;102296.41;;;21.22;41.81
55187;BME280;55457;52.002;5.464;2023-04-09T05:40:13;102295.34;;;21.23;41.92
55187;BME280;55457;52.002;5.464;2023-04-09T05:42:38;102293.69;;;21.22;41.90
55187;BME280;55457;52.002;5.464;2023-04-09T05:45:04;102301.81;;;21.22;41.74
55187;BME280;55457;52.002;5.464;2023-04-09T05:47:29;102299.09;;;21.22;41.89
55187;BME280;55457;52.002;5.464;2023-04-09T05:49:55;102293.69;;;21.22;41.72
55187;BME280;55457;52.002;5.464;2023-04-09T05:52:20;102295.56;;;21.22;41.91
55187;BME280;55457;52.002;5.464;2023-04-09T05:54:46;102299.94;;;21.23;42.10
55187;BME280;55457;52.002;5.464;2023-04-09T05:57:11;102302.03;;;21.21;41.83
55187;BME280;55457;52.002;5.464;2023-04-09T05:59:36;102306.41;;;21.22;41.90
55187;BME280;55457;52.002;5.464;2023-04-09T06:02:01;102302.88;;;21.21;41.73
55187;BME280;55457;52.002;5.464;2023-04-09T06:04:26;102302.88;;;21.21;41.85
55187;BME280;55457;52.002;5.464;2023-04-09T06:06:52;102302.88;;;21.21;41.63
55187;BME280;55457;52.002;5.464;2023-04-09T06:09:17;102303.69;;;21.22;41.90
55187;BME280;55457;52.002;5.464;2023-04-09T06:11:42;102305.38;;;21.23;41.91
55187;BME280;55457;52.002;5.464;2023-04-09T06:14:07;102307.03;;;21.24;41.82
55187;BME280;55457;52.002;5.464;2023-04-09T06:16:32;102301.59;;;21.24;41.77
55187;BME280;55457;52.002;5.464;2023-04-09T06:18:58;102301.59;;;21.24;41.82
55187;BME280;55457;52.002;5.464;2023-04-09T06:21:24;102311.44;;;21.25;41.75
55187;BME280;55457;52.002;5.464;2023-04-09T06:23:49;102308.50;;;21.26;41.75
55187;BME280;55457;52.002;5.464;2023-04-09T06:26:15;102313.69;;;21.28;41.85
55187;BME280;55457;52.002;5.464;2023-04-09T06:28:41;102314.75;;;21.27;42.50
55187;BME280;55457;52.002;5.464;2023-04-09T06:31:07;102309.53;;;21.25;42.85
55187;BME280;55457;52.002;5.464;2023-04-09T06:33:32;102317.44;;;21.27;43.24
55187;BME280;55457;52.002;5.464;2023-04-09T06:35:57;102320.16;;;21.27;43.53
55187;BME280;55457;52.002;5.464;2023-04-09T06:38:22;102320.16;;;21.27;43.87
55187;BME280;55457;52.002;5.464;2023-04-09T06:40:47;102322.88;;;21.27;43.59
55187;BME280;55457;52.002;5.464;2023-04-09T06:43:13;102319.34;;;21.26;43.60
55187;BME280;55457;52.002;5.464;2023-04-09T06:45:38;102316.84;;;21.25;43.86
55187;BME280;55457;52.002;5.464;2023-04-09T06:48:03;102318.50;;;21.26;43.59
55187;BME280;55457;52.002;5.464;2023-04-09T06:50:29;102321.22;;;21.26;43.54
55187;BME280;55457;52.002;5.464;2023-04-09T06:52:54;102321.22;;;21.26;43.64
55187;BME280;55457;52.002;5.464;2023-04-09T06:55:20;102321.22;;;21.26;43.39
55187;BME280;55457;52.002;5.464;2023-04-09T06:57:45;102314.13;;;21.25;43.50
55187;BME280;55457;52.002;5.464;2023-04-09T07:00:11;102328.53;;;21.25;43.31
55187;BME280;55457;52.002;5.464;2023-04-09T07:02:36;102324.75;;;21.26;43.39
55187;BME280;55457;52.002;5.464;2023-04-09T07:05:02;102325.59;;;21.27;43.22
55187;BME280;55457;52.002;5.464;2023-04-09T07:07:27;102328.31;;;21.27;43.09
55187;BME280;55457;52.002;5.464;2023-04-09T07:09:53;102325.38;;;21.28;43.17
55187;BME280;55457;52.002;5.464;2023-04-09T07:12:27;102328.06;;;21.28;43.15
55187;BME280;55457;52.002;5.464;2023-04-09T07:14:55;102328.91;;;21.29;43.03
55187;BME280;55457;52.002;5.464;2023-04-09T07:17:21;102334.31;;;21.29;43.03
55187;BME280;55457;52.002;5.464;2023-04-09T07:19:46;102328.06;;;21.28;42.90
55187;BME280;55457;52.002;5.464;2023-04-09T07:22:11;102329.56;;;21.31;42.94
55187;BME280;55457;52.002;5.464;2023-04-09T07:24:36;102334.16;;;21.30;43.07
55187;BME280;55457;52.002;5.464;2023-04-09T07:27:04;102330.19;;;21.33;42.81
55187;BME280;55457;52.002;5.464;2023-04-09T07:29:30;102343.50;;;21.34;42.86
55187;BME280;55457;52.002;5.464;2023-04-09T07:31:55;102333.50;;;21.35;42.84
55187;BME280;55457;52.002;5.464;2023-04-09T07:34:20;102332.47;;;21.36;42.64
55187;BME280;55457;52.002;5.464;2023-04-09T07:36:45;102335.19;;;21.36;42.85
55187;BME280;55457;52.002;5.464;2023-04-09T07:39:11;102334.13;;;21.37;42.70
55187;BME280;55457;52.002;5.464;2023-04-09T07:41:36;102331.44;;;21.37;42.75
55187;BME280;55457;52.002;5.464;2023-04-09T07:44:01;102328.50;;;21.39;42.82
55187;BME280;55457;52.002;5.464;2023-04-09T07:46:27;102326.84;;;21.38;42.72
55187;BME280;55457;52.002;5.464;2023-04-09T07:48:52;102326.59;;;21.39;42.85
55187;BME280;55457;52.002;5.464;2023-04-09T07:51:18;102328.25;;;21.40;42.81
55187;BME280;55457;52.002;5.464;2023-04-09T07:53:43;102325.13;;;21.43;42.85
55187;BME280;55457;52.002;5.464;2023-04-09T07:56:08;102313.22;;;21.44;42.55
55187;BME280;55457;52.002;5.464;2023-04-09T07:58:33;102318.84;;;21.49;42.76
55187;BME280;55457;52.002;5.464;2023-04-09T08:00:59;102321.38;;;21.51;42.63
55187;BME280;55457;52.002;5.464;2023-04-09T08:03:24;102320.91;;;21.54;42.42
55187;BME280;55457;52.002;5.464;2023-04-09T08:05:49;102325.09;;;21.56;42.50
55187;BME280;55457;52.002;5.464;2023-04-09T08:08:15;102326.53;;;21.59;42.47
55187;BME280;55457;52.002;5.464;2023-04-09T08:10:40;102328.00;;;21.61;42.27
55187;BME280;55457;52.002;5.464;2023-04-09T08:13:05;102323.41;;;21.62;42.20
55187;BME280;55457;52.002;5.464;2023-04-09T08:15:30;102324.81;;;21.65;42.35
55187;BME280;55457;52.002;5.464;2023-04-09T08:17:56;102327.13;;;21.68;42.21
55187;BME280;55457;52.002;5.464;2023-04-09T08:20:22;102325.84;;;21.70;42.00
55187;BME280;55457;52.002;5.464;2023-04-09T08:22:47;102322.94;;;21.72;42.24
55187;BME280;55457;52.002;5.464;2023-04-09T08:25:12;102328.75;;;21.75;42.25
55187;BME280;55457;52.002;5.464;2023-04-09T08:27:37;102322.88;;;21.78;42.29
55187;BME280;55457;52.002;5.464;2023-04-09T08:30:03;102319.94;;;21.80;41.78
55187;BME280;55457;52.002;5.464;2023-04-09T08:32:29;102328.09;;;21.80;41.78
55187;BME280;55457;52.002;5.464;2023-04-09T08:34:54;102328.69;;;21.82;41.98
55187;BME280;55457;52.002;5.464;2023-04-09T08:37:19;102332.47;;;21.81;41.90
55187;BME280;55457;52.002;5.464;2023-04-09T08:39:45;102327.03;;;21.81;42.08
55187;BME280;55457;52.002;5.464;2023-04-09T08:42:10;102327.66;;;21.83;41.93
55187;BME280;55457;52.002;5.464;2023-04-09T08:44:36;102324.50;;;21.86;42.02
55187;BME280;55457;52.002;5.464;2023-04-09T08:47:05;102322.41;;;21.88;42.00
55187;BME280;55457;52.002;5.464;2023-04-09T08:49:33;102321.38;;;21.89;42.01
55187;BME280;55457;52.002;5.464;2023-04-09T08:51:58;102322.78;;;21.92;41.75
55187;BME280;55457;52.002;5.464;2023-04-09T08:54:23;102323.63;;;21.92;41.74
55187;BME280;55457;52.002;5.464;2023-04-09T08:56:50;102324.03;;;21.96;41.97
55187;BME280;55457;52.002;5.464;2023-04-09T08:59:16;102317.34;;;21.98;41.83
55187;BME280;55457;52.002;5.464;2023-04-09T09:01:44;102316.88;;;22.01;41.67
55187;BME280;55457;52.002;5.464;2023-04-09T09:04:11;102315.41;;;22.05;41.87
55187;BME280;55457;52.002;5.464;2023-04-09T09:06:37;102305.78;;;22.09;41.79
55187;BME280;55457;52.002;5.464;2023-04-09T09:09:04;102303.47;;;22.13;41.67
55187;BME280;55457;52.002;5.464;2023-04-09T09:11:30;102309.31;;;22.17;41.80
55187;BME280;55457;52.002;5.464;2023-04-09T09:13:56;102313.69;;;22.18;41.44
55187;BME280;55457;52.002;5.464;2023-04-09T09:16:21;102307.22;;;22.19;41.36
55187;BME280;55457;52.002;5.464;2023-04-09T09:18:46;102298.84;;;22.20;41.39
55187;BME280;55457;52.002;5.464;2023-04-09T09:21:12;102314.06;;;22.21;41.28
55187;BME280;55457;52.002;5.464;2023-04-09T09:23:38;102305.50;;;22.24;41.42
55187;BME280;55457;52.002;5.464;2023-04-09T09:28:37;102311.03;;;22.36;41.34
55187;BME280;55457;52.002;5.464;2023-04-09T09:31:09;102305.16;;;22.39;41.65
55187;BME280;55457;52.002;5.464;2023-04-09T09:33:35;102304.28;;;22.45;41.17
55187;BME280;55457;52.002;5.464;2023-04-09T09:36:00;102302.56;;;22.51;41.18
55187;BME280;55457;52.002;5.464;2023-04-09T09:38:27;102301.91;;;22.55;41.36
55187;BME280;55457;52.002;5.464;2023-04-09T09:40:53;102303.91;;;22.60;40.92
55187;BME280;55457;52.002;5.464;2023-04-09T09:43:18;102305.97;;;22.64;41.09
55187;BME280;55457;52.002;5.464;2023-04-09T09:45:43;102298.44;;;22.66;40.80
55187;BME280;55457;52.002;5.464;2023-04-09T09:48:10;102299.63;;;22.71;40.84
55187;BME280;55457;52.002;5.464;2023-04-09T09:50:37;102294.34;;;22.76;40.79
55187;BME280;55457;52.002;5.464;2023-04-09T09:53:03;102299.94;;;22.81;41.12
55187;BME280;55457;52.002;5.464;2023-04-09T09:55:30;102295.72;;;22.85;40.94
55187;BME280;55457;52.002;5.464;2023-04-09T09:57:56;102293.19;;;22.90;41.00
55187;BME280;55457;52.002;5.464;2023-04-09T10:00:22;102288.16;;;22.94;40.67
55187;BME280;55457;52.002;5.464;2023-04-09T10:02:55;102289.13;;;22.99;40.86
55187;BME280;55457;52.002;5.464;2023-04-09T10:05:21;102287.63;;;23.03;40.62
55187;BME280;55457;52.002;5.464;2023-04-09T10:07:51;102292.41;;;23.08;40.64
55187;BME280;55457;52.002;5.464;2023-04-09T10:10:16;102279.63;;;23.08;40.39
55187;BME280;55457;52.002;5.464;2023-04-09T10:12:42;102275.38;;;23.12;40.09
55187;BME280;55457;52.002;5.464;2023-04-09T10:15:09;102264.06;;;23.15;40.19
55187;BME280;55457;52.002;5.464;2023-04-09T10:17:34;102262.94;;;23.23;40.04
55187;BME280;55457;52.002;5.464;2023-04-09T10:20:04;102258.66;;;23.27;40.20
55187;BME280;55457;52.002;5.464;2023-04-09T10:22:31;102255.03;;;23.33;40.13
55187;BME280;55457;52.002;5.464;2023-04-09T10:24:57;102250.06;;;23.30;40.01
55187;BME280;55457;52.002;5.464;2023-04-09T10:27:24;102252.53;;;23.32;39.77
55187;BME280;55457;52.002;5.464;2023-04-09T10:29:51;102239.06;;;23.37;39.96
55187;BME280;55457;52.002;5.464;2023-04-09T10:32:19;102249.50;;;23.40;40.00
55187;BME280;55457;52.002;5.464;2023-04-09T10:34:45;102243.59;;;23.43;39.61
55187;BME280;55457;52.002;5.464;2023-04-09T10:37:14;102245.63;;;23.48;39.96
55187;BME280;55457;52.002;5.464;2023-04-09T10:39:44;102235.13;;;23.51;39.70
55187;BME280;55457;52.002;5.464;2023-04-09T10:42:13;102242.59;;;23.56;39.52
55187;BME280;55457;52.002;5.464;2023-04-09T10:44:40;102234.78;;;23.59;39.60
55187;BME280;55457;52.002;5.464;2023-04-09T10:47:08;102236.63;;;23.65;39.70
55187;BME280;55457;52.002;5.464;2023-04-09T10:49:37;102225.94;;;23.64;39.37
55187;BME280;55457;52.002;5.464;2023-04-09T10:59:31;102230.34;;;23.65;39.54
55187;BME280;55457;52.002;5.464;2023-04-09T11:01:56;102224.31;;;23.63;39.18
55187;BME280;55457;52.002;5.464;2023-04-09T11:04:22;102219.47;;;23.65;39.58
55187;BME280;55457;52.002;5.464;2023-04-09T11:06:51;102218.16;;;23.67;39.40
55187;BME280;55457;52.002;5.464;2023-04-09T11:09:16;102223.75;;;23.73;39.53
55187;BME280;55457;52.002;5.464;2023-04-09T11:11:42;102218.41;;;23.66;39.46
55187;BME280;55457;52.002;5.464;2023-04-09T11:14:07;102217.41;;;23.60;39.34
55187;BME280;55457;52.002;5.464;2023-04-09T11:16:32;102220.00;;;23.55;39.22
55187;BME280;55457;52.002;5.464;2023-04-09T11:18:57;102206.84;;;23.52;39.42
55187;BME280;55457;52.002;5.464;2023-04-09T11:21:26;102207.81;;;23.58;39.35
55187;BME280;55457;52.002;5.464;2023-04-09T11:23:52;102206.06;;;23.63;39.39
55187;BME280;55457;52.002;5.464;2023-04-09T11:26:34;102196.97;;;23.69;39.55
55187;BME280;55457;52.002;5.464;2023-04-09T11:29:03;102205.47;;;23.61;39.55
55187;BME280;55457;52.002;5.464;2023-04-09T11:31:28;102197.16;;;23.56;39.16
55187;BME280;55457;52.002;5.464;2023-04-09T11:33:54;102203.69;;;23.55;39.54
55187;BME280;55457;52.002;5.464;2023-04-09T11:36:20;102201.41;;;23.52;39.30
55187;BME280;55457;52.002;5.464;2023-04-09T11:38:46;102206.72;;;23.47;39.19
55187;BME280;55457;52.002;5.464;2023-04-09T11:41:12;102203.41;;;23.45;39.44
55187;BME280;55457;52.002;5.464;2023-04-09T11:43:38;102201.75;;;23.44;39.62
55187;BME280;55457;52.002;5.464;2023-04-09T11:46:03;102201.88;;;23.49;39.41
55187;BME280;55457;52.002;5.464;2023-04-09T11:48:29;102195.97;;;23.52;39.54
55187;BME280;55457;52.002;5.464;2023-04-09T11:50:54;102200.25;;;23.60;39.64
55187;BME280;55457;52.002;5.464;2023-04-09T11:53:20;102199.34;;;23.66;39.30
55187;BME280;55457;52.002;5.464;2023-04-09T11:55:49;102188.81;;;23.69;39.20
55187;BME280;55457;52.002;5.464;2023-04-09T11:58:15;102195.22;;;23.75;39.09
55187;BME280;55457;52.002;5.464;2023-04-09T12:00:41;102186.34;;;23.80;38.81
55187;BME280;55457;52.002;5.464;2023-04-09T12:03:08;102182.72;;;23.86;39.02
55187;BME280;55457;52.002;5.464;2023-04-09T12:05:34;102187.44;;;23.90;38.79
55187;BME280;55457;52.002;5.464;2023-04-09T12:08:03;102193.81;;;23.96;38.90
55187;BME280;55457;52.002;5.464;2023-04-09T12:10:32;102186.84;;;24.00;38.66
55187;BME280;55457;52.002;5.464;2023-04-09T12:13:16;102179.03;;;24.04;38.77
55187;BME280;55457;52.002;5.464;2023-04-09T12:15:41;102177.28;;;24.09;38.95
55187;BME280;55457;52.002;5.464;2023-04-09T12:18:08;102182.84;;;24.14;38.44
55187;BME280;55457;52.002;5.464;2023-04-09T12:20:37;102183.19;;;24.18;38.69
55187;BME280;55457;52.002;5.464;2023-04-09T12:23:06;102178.34;;;24.20;38.84
55187;BME280;55457;52.002;5.464;2023-04-09T12:25:34;102177.16;;;24.28;38.85
55187;BME280;55457;52.002;5.464;2023-04-09T12:28:00;102186.50;;;24.32;38.39
55187;BME280;55457;52.002;5.464;2023-04-09T12:30:26;102180.59;;;24.35;38.38
55187;BME280;55457;52.002;5.464;2023-04-09T12:32:52;102185.56;;;24.38;38.11
55187;BME280;55457;52.002;5.464;2023-04-09T12:35:17;102184.75;;;24.37;38.56
55187;BME280;55457;52.002;5.464;2023-04-09T12:37:43;102189.81;;;24.34;37.98
55187;BME280;55457;52.002;5.464;2023-04-09T12:40:08;102184.84;;;24.31;38.17
55187;BME280;55457;52.002;5.464;2023-04-09T12:42:33;102181.75;;;24.27;38.41
55187;BME280;55457;52.002;5.464;2023-04-09T12:44:58;102178.94;;;24.34;38.33
55187;BME280;55457;52.002;5.464;2023-04-09T12:47:24;102177.28;;;24.33;38.71
55187;BME280;55457;52.002;5.464;2023-04-09T12:49:49;102186.16;;;24.28;37.76
55187;BME280;55457;52.002;5.464;2023-04-09T12:52:15;102181.88;;;24.20;38.11
55187;BME280;55457;52.002;5.464;2023-04-09T12:54:40;102175.97;;;24.24;38.14
55187;BME280;55457;52.002;5.464;2023-04-09T12:57:05;102176.44;;;24.20;38.35
55187;BME280;55457;52.002;5.464;2023-04-09T12:59:31;102173.25;;;24.24;38.25
55187;BME280;55457;52.002;5.464;2023-04-09T13:01:56;102171.59;;;24.23;38.27
55187;BME280;55457;52.002;5.464;2023-04-09T13:04:21;102175.50;;;24.15;37.23
55187;BME280;55457;52.002;5.464;2023-04-09T13:06:46;102171.13;;;24.14;38.37